Drogeham, Netherlands
Current Conditions -  °F | °C
As of 6:25 PM on Friday 24 Oct 2014 (Local Time) from EHLW Reporting Station
Drizzle Drizzle  
Wind Chill: 52°   Ceiling: 400
Heat Index: 52°   Visibility: 2.5mi
Dew Point: 52°   Wind: 12mph
Humidity: 100%   Direction: 180°S
Pressure: 29.97"   Gusts: NA
Location:  53.2°N, 6.11°E
Report Text: EHLW 241625Z AUTO 18010KT 4100 -DZ SCT003 BKN004 OVC006 11/11 Q1015 REDZ YLO
Loading
Personal Weather Stations






























Interactive Weather Map
Tropical Storm Tracking
New forecast layout! Learn more

10-Day Weather Forecast

Advertisements
Track Severe Weather on mobile